createdAt,value
2018-08-19T00:04:29.992Z,6.20
2018-08-19T00:09:22.974Z,8.98
2018-08-19T00:14:28.807Z,6.50
2018-08-19T00:19:21.873Z,7.28
2018-08-19T00:24:14.911Z,7.62
2018-08-19T00:29:07.950Z,7.60
2018-08-19T00:34:01.007Z,8.83
2018-08-19T00:38:54.927Z,8.43
2018-08-19T00:43:47.958Z,5.55
2018-08-19T00:48:41.039Z,8.08
2018-08-19T00:53:34.166Z,7.78
2018-08-19T00:58:27.239Z,7.45
2018-08-19T01:03:20.242Z,5.65
2018-08-19T01:08:14.216Z,5.92
2018-08-19T01:13:07.748Z,12.33
2018-08-19T01:18:00.691Z,9.13
2018-08-19T01:22:53.809Z,8.85
2018-08-19T01:27:47.010Z,6.65
2018-08-19T01:32:40.159Z,7.08
2018-08-19T01:37:33.922Z,8.93
2018-08-19T01:42:26.857Z,8.25
2018-08-19T01:47:19.971Z,8.23
2018-08-19T01:52:13.005Z,10.82
2018-08-19T01:57:06.024Z,8.33
2018-08-19T02:02:02.128Z,9.63
2018-08-19T02:06:55.180Z,10.08
2018-08-19T02:11:51.911Z,6.80
2018-08-19T02:16:45.051Z,9.53
2018-08-19T02:21:38.351Z,5.67
2018-08-19T02:26:31.354Z,9.03
2018-08-19T02:31:24.369Z,7.75
2018-08-19T02:36:17.318Z,8.75
2018-08-19T02:41:10.578Z,8.83
2018-08-19T02:46:03.669Z,7.40
2018-08-19T02:50:56.668Z,7.45
2018-08-19T02:55:49.617Z,9.18
2018-08-19T03:00:42.610Z,8.70
2018-08-19T03:05:37.121Z,9.45
2018-08-19T03:10:30.627Z,10.43
2018-08-19T03:15:23.761Z,8.05
2018-08-19T03:20:16.845Z,7.70
2018-08-19T03:25:10.563Z,8.90
2018-08-19T03:30:05.605Z,10.63
2018-08-19T03:35:04.777Z,6.92
2018-08-19T03:39:57.802Z,7.53
2018-08-19T03:44:50.787Z,8.30
2018-08-19T03:49:43.704Z,11.85
2018-08-19T03:54:36.755Z,7.97
2018-08-19T03:59:29.746Z,10.80
2018-08-19T04:04:22.793Z,8.43
2018-08-19T04:09:15.760Z,8.50
2018-08-19T04:14:28.419Z,6.95
2018-08-19T04:19:23.919Z,10.20
2018-08-19T04:24:16.930Z,9.78
2018-08-19T04:29:14.992Z,10.78
2018-08-19T04:34:08.433Z,7.87
2018-08-19T04:39:01.470Z,18.20
2018-08-19T04:43:54.535Z,11.20
2018-08-19T04:48:48.095Z,10.78
2018-08-19T04:53:41.291Z,9.25
2018-08-19T04:58:34.541Z,9.05
2018-08-19T05:03:27.502Z,9.75
2018-08-19T05:08:20.762Z,7.22
2018-08-19T05:13:14.965Z,10.20
2018-08-19T05:18:08.628Z,11.08
2018-08-19T05:23:01.685Z,10.98
2018-08-19T05:28:03.103Z,10.68
2018-08-19T05:33:03.175Z,13.22
2018-08-19T05:37:57.157Z,7.97
2018-08-19T05:42:50.192Z,11.53
2018-08-19T05:47:43.513Z,13.15
2018-08-19T05:52:36.711Z,9.73
2018-08-19T05:57:30.876Z,11.03
2018-08-19T06:02:31.285Z,10.15
2018-08-19T06:07:26.446Z,11.00
2018-08-19T06:12:19.575Z,10.32
2018-08-19T06:17:12.704Z,9.85
2018-08-19T06:22:06.806Z,12.68
2018-08-19T06:26:59.674Z,8.95
2018-08-19T06:31:52.864Z,9.68
2018-08-19T06:36:45.972Z,10.28
2018-08-19T06:41:39.084Z,10.80
2018-08-19T06:46:32.136Z,12.60
2018-08-19T06:51:25.190Z,14.30
2018-08-19T06:56:18.330Z,9.08
2018-08-19T07:01:11.525Z,13.05
2018-08-19T07:06:13.183Z,8.28
2018-08-19T07:11:06.339Z,11.83
2018-08-19T07:16:02.832Z,9.45
2018-08-19T07:20:58.404Z,9.68
2018-08-19T07:25:53.950Z,8.55
2018-08-19T07:30:48.599Z,6.65
2018-08-19T07:35:41.647Z,8.15
2018-08-19T07:40:34.662Z,8.13
2018-08-19T07:45:27.901Z,8.58
2018-08-19T07:50:20.863Z,8.25
2018-08-19T07:55:14.119Z,9.60
2018-08-19T08:00:07.200Z,8.83
2018-08-19T08:05:01.116Z,8.28
2018-08-19T08:09:54.730Z,10.38
2018-08-19T08:14:51.727Z,6.80
2018-08-19T08:19:50.484Z,8.40
2018-08-19T08:24:43.772Z,9.53
2018-08-19T08:29:36.786Z,7.65
2018-08-19T08:34:29.832Z,8.05
2018-08-19T08:39:22.904Z,7.70
2018-08-19T08:44:15.881Z,10.13
2018-08-19T08:49:09.010Z,5.80
2018-08-19T08:54:02.031Z,6.80
2018-08-19T08:58:55.146Z,7.33
2018-08-19T09:03:48.203Z,6.67
2018-08-19T09:08:41.303Z,7.45
2018-08-19T09:13:34.195Z,9.63
2018-08-19T09:18:27.072Z,8.75
2018-08-19T09:23:20.329Z,6.83
2018-08-19T09:28:13.136Z,9.75
2018-08-19T09:33:06.251Z,8.88
2018-08-19T09:38:04.827Z,9.33
2018-08-19T09:42:58.012Z,7.53
2018-08-19T09:47:51.319Z,8.65
2018-08-19T09:52:44.563Z,8.45
2018-08-19T09:57:41.960Z,8.70
2018-08-19T10:02:39.362Z,5.92
2018-08-19T10:07:32.359Z,7.37
2018-08-19T10:12:25.371Z,9.18
2018-08-19T10:17:18.364Z,9.20
2018-08-19T10:22:11.467Z,9.63
2018-08-19T10:27:07.505Z,7.58
2018-08-19T10:32:01.813Z,5.90
2018-08-19T10:36:55.499Z,7.97
2018-08-19T10:41:48.606Z,8.08
2018-08-19T10:46:42.690Z,7.75
2018-08-19T10:51:39.723Z,5.60
2018-08-19T10:56:32.707Z,7.97
2018-08-19T11:01:25.738Z,7.03
2018-08-19T11:06:18.918Z,7.95
2018-08-19T11:11:12.023Z,9.90
2018-08-19T11:16:05.168Z,7.42
2018-08-19T11:21:01.256Z,8.28
2018-08-19T11:25:55.213Z,8.83
2018-08-19T11:30:48.220Z,7.25
2018-08-19T11:35:46.000Z,7.20
2018-08-19T11:40:39.763Z,5.95
2018-08-19T11:45:32.819Z,7.97
2018-08-19T11:50:26.147Z,8.60
2018-08-19T11:55:19.436Z,9.13
2018-08-19T12:00:12.461Z,7.67
2018-08-19T12:05:05.469Z,6.15
2018-08-19T12:09:59.949Z,6.58
2018-08-19T12:14:52.931Z,9.90
2018-08-19T12:19:45.973Z,5.75
2018-08-19T12:24:44.281Z,7.78
2018-08-19T12:29:38.359Z,9.13
2018-08-19T12:34:31.756Z,5.65
2018-08-19T12:39:24.726Z,7.35
2018-08-19T12:44:17.635Z,7.22
2018-08-19T12:49:10.758Z,7.67
2018-08-19T12:54:04.336Z,6.50
2018-08-19T12:58:57.296Z,9.60
2018-08-19T13:03:50.246Z,7.85
2018-08-19T13:08:44.262Z,7.58
2018-08-19T13:13:37.601Z,8.83
2018-08-19T13:18:36.242Z,10.20
2018-08-19T13:23:32.099Z,8.75
2018-08-19T13:28:25.301Z,10.43
2018-08-19T13:33:19.054Z,9.63
2018-08-19T13:38:17.173Z,7.67
2018-08-19T13:43:10.181Z,9.18
2018-08-19T13:48:03.211Z,8.18
2018-08-19T13:52:56.171Z,8.18
2018-08-19T13:57:49.260Z,8.65
2018-08-19T14:02:42.305Z,6.33
2018-08-19T14:07:35.300Z,7.15
2018-08-19T14:12:28.360Z,6.90
2018-08-19T14:17:21.310Z,7.37
2018-08-19T14:22:14.326Z,7.83
2018-08-19T14:27:07.334Z,7.62
2018-08-19T14:32:00.279Z,10.50
2018-08-19T14:36:53.330Z,7.72
2018-08-19T14:41:46.294Z,9.10
2018-08-19T14:46:39.423Z,9.90
2018-08-19T14:51:55.830Z,10.48
2018-08-19T14:56:49.435Z,14.47
2018-08-19T15:01:42.687Z,15.75
2018-08-19T15:06:35.627Z,12.80
2018-08-19T15:11:28.699Z,10.23
2018-08-19T15:16:21.791Z,9.68
2018-08-19T15:21:14.714Z,13.08
2018-08-19T15:26:07.766Z,10.25
2018-08-19T15:31:01.150Z,9.73
2018-08-19T15:40:55.931Z,9.90
2018-08-19T15:45:48.903Z,11.45
2018-08-19T15:50:41.857Z,11.90
2018-08-19T15:55:35.081Z,10.90
2018-08-19T16:00:28.305Z,10.55
2018-08-19T16:05:21.350Z,23.05
2018-08-19T16:10:16.114Z,20.92
2018-08-19T16:15:13.515Z,16.40
2018-08-19T16:20:06.793Z,10.93
2018-08-19T16:24:59.907Z,17.17
2018-08-19T16:29:53.513Z,17.82
2018-08-19T16:34:46.735Z,16.97
2018-08-19T16:39:40.814Z,14.13
2018-08-19T16:44:33.834Z,13.13
2018-08-19T16:49:26.958Z,13.32
2018-08-19T16:54:20.154Z,11.90
2018-08-19T16:59:13.071Z,14.58
2018-08-19T17:04:06.250Z,11.05
2018-08-19T17:08:59.218Z,11.45
2018-08-19T17:13:52.246Z,12.55
2018-08-19T17:18:45.275Z,12.70
2018-08-19T17:23:38.315Z,10.70
2018-08-19T17:28:31.416Z,12.33
2018-08-19T17:33:29.058Z,10.25
2018-08-19T17:38:22.172Z,8.53
2018-08-19T17:43:15.203Z,9.98
2018-08-19T17:48:08.415Z,19.52
2018-08-19T17:53:02.415Z,13.50
2018-08-19T17:57:56.988Z,11.40
2018-08-19T18:02:50.984Z,11.70
2018-08-19T18:07:50.102Z,11.18
2018-08-19T18:12:43.021Z,12.82
2018-08-19T18:17:36.527Z,11.68
2018-08-19T18:22:29.517Z,12.80
2018-08-19T18:27:22.722Z,12.28
2018-08-19T18:32:15.784Z,13.32
2018-08-19T18:37:08.786Z,11.03
2018-08-19T18:42:01.819Z,9.80
2018-08-19T18:46:54.771Z,15.85
2018-08-19T18:51:49.374Z,11.15
2018-08-19T18:56:42.698Z,9.93
2018-08-19T19:01:35.701Z,11.63
2018-08-19T19:06:28.638Z,11.30
2018-08-19T19:11:23.060Z,10.25
2018-08-19T19:16:19.353Z,11.25
2018-08-19T19:21:13.034Z,12.43
2018-08-19T19:26:06.858Z,12.13
2018-08-19T19:31:05.353Z,10.48
2018-08-19T19:36:08.840Z,10.98
2018-08-19T19:41:05.971Z,11.22
2018-08-19T19:45:59.577Z,9.15
2018-08-19T19:50:52.606Z,11.43
2018-08-19T19:55:45.669Z,9.13
2018-08-19T20:00:54.350Z,11.50
2018-08-19T20:05:48.837Z,11.40
2018-08-19T20:10:41.903Z,10.95
2018-08-19T20:15:34.920Z,13.20
2018-08-19T20:20:30.530Z,10.68
2018-08-19T20:25:23.599Z,13.15
2018-08-19T20:30:16.715Z,13.93
2018-08-19T20:35:10.527Z,12.58
2018-08-19T20:40:03.870Z,13.83
2018-08-19T20:44:59.526Z,14.55
2018-08-19T20:49:52.680Z,13.03
2018-08-19T20:54:45.681Z,12.35
2018-08-19T20:59:38.877Z,12.68
2018-08-19T21:04:32.108Z,11.55
2018-08-19T21:09:25.264Z,14.13
2018-08-19T21:14:18.501Z,10.90
2018-08-19T21:19:11.647Z,12.35
2018-08-19T21:24:04.655Z,12.60
2018-08-19T21:29:03.232Z,12.85
2018-08-19T21:33:56.262Z,13.40
2018-08-19T21:38:49.540Z,13.22
2018-08-19T21:43:42.551Z,14.10
2018-08-19T21:48:38.598Z,13.58
2018-08-19T21:53:32.719Z,14.47
2018-08-19T21:58:26.216Z,14.85
2018-08-19T22:03:24.800Z,13.05
2018-08-19T22:08:19.852Z,14.23
2018-08-19T22:13:14.235Z,10.48
2018-08-19T22:18:09.169Z,11.43
2018-08-19T22:23:02.345Z,14.05
2018-08-19T22:27:55.244Z,13.03
2018-08-19T22:32:49.170Z,12.88
2018-08-19T22:37:42.330Z,13.03
2018-08-19T22:42:35.222Z,13.00
2018-08-19T22:47:28.162Z,12.33
2018-08-19T22:52:22.562Z,12.82
2018-08-19T22:57:15.558Z,11.97
2018-08-19T23:02:08.716Z,11.90
2018-08-19T23:07:01.731Z,12.95
2018-08-19T23:11:54.952Z,11.73
2018-08-19T23:16:47.987Z,12.25
2018-08-19T23:21:41.068Z,12.15
2018-08-19T23:26:33.981Z,9.73
2018-08-19T23:31:27.087Z,10.50
2018-08-19T23:36:20.151Z,10.78
2018-08-19T23:41:13.162Z,13.05
2018-08-19T23:46:06.553Z,13.38
2018-08-19T23:50:59.594Z,12.33
2018-08-19T23:55:52.596Z,13.83
